createdAt,value
2019-05-06T00:02:21.902Z,3.70
2019-05-06T00:06:27.939Z,2.90
2019-05-06T00:10:36.234Z,2.73
2019-05-06T00:14:45.870Z,3.07
2019-05-06T00:18:54.384Z,3.27
2019-05-06T00:23:01.397Z,3.93
2019-05-06T00:27:15.165Z,3.67
2019-05-06T00:31:24.038Z,3.47
2019-05-06T00:35:34.237Z,3.13
2019-05-06T00:40:00.756Z,3.77
2019-05-06T00:44:08.823Z,3.60
2019-05-06T00:48:14.277Z,4.03
2019-05-06T00:52:23.927Z,3.33
2019-05-06T00:56:30.540Z,4.23
2019-05-06T01:00:37.958Z,3.33
2019-05-06T01:04:44.601Z,2.87
2019-05-06T01:08:54.376Z,3.43
2019-05-06T01:17:25.389Z,3.33
2019-05-06T01:21:31.415Z,3.87
2019-05-06T01:25:38.398Z,4.63
2019-05-06T01:29:44.169Z,3.60
2019-05-06T01:33:49.948Z,3.57
2019-05-06T01:38:14.937Z,2.60
2019-05-06T01:42:44.689Z,4.10
2019-05-06T01:46:50.108Z,3.43
2019-05-06T01:50:56.295Z,3.60
2019-05-06T01:55:04.859Z,3.73
2019-05-06T01:59:11.258Z,3.40
2019-05-06T02:03:17.367Z,3.50
2019-05-06T02:07:44.226Z,3.03
2019-05-06T02:11:50.301Z,3.43
2019-05-06T02:15:58.334Z,3.10
2019-05-06T02:20:04.902Z,3.07
2019-05-06T02:24:16.411Z,2.17
2019-05-06T02:28:23.620Z,3.17
2019-05-06T02:32:45.244Z,3.13
2019-05-06T02:37:00.862Z,2.73
2019-05-06T02:41:07.273Z,3.27
2019-05-06T02:45:13.587Z,3.30
2019-05-06T02:49:23.709Z,3.43
2019-05-06T02:53:33.125Z,2.87
2019-05-06T02:57:37.532Z,3.40
2019-05-06T03:02:03.616Z,3.30
2019-05-06T03:06:13.174Z,3.33
2019-05-06T03:10:18.326Z,3.23
2019-05-06T03:14:25.121Z,3.67
2019-05-06T03:18:32.834Z,3.07
2019-05-06T03:22:58.216Z,4.33
2019-05-06T03:27:04.755Z,5.00
2019-05-06T03:31:16.052Z,5.43
2019-05-06T03:35:33.461Z,5.20
2019-05-06T03:39:27.194Z,5.07
2019-05-06T03:43:33.999Z,4.83
2019-05-06T03:47:43.326Z,4.83
2019-05-06T03:51:49.871Z,3.93
2019-05-06T03:55:58.047Z,5.00
2019-05-06T04:00:09.119Z,5.33
2019-05-06T04:04:15.565Z,4.50
2019-05-06T04:08:43.638Z,4.50
2019-05-06T04:12:53.662Z,4.70
2019-05-06T04:17:18.877Z,4.57
2019-05-06T04:21:34.310Z,5.07
2019-05-06T04:25:58.937Z,3.33
2019-05-06T04:30:07.387Z,3.83
2019-05-06T04:34:18.792Z,4.00
2019-05-06T04:38:23.767Z,4.10
2019-05-06T04:42:30.101Z,4.73
2019-05-06T04:46:38.219Z,4.50
2019-05-06T04:50:44.590Z,3.40
2019-05-06T04:54:53.201Z,3.20
2019-05-06T04:59:03.169Z,2.87
2019-05-06T05:03:08.070Z,3.40
2019-05-06T05:07:22.611Z,2.97
2019-05-06T05:11:45.282Z,2.30
2019-05-06T05:16:02.265Z,2.47
2019-05-06T05:20:09.948Z,2.80
2019-05-06T05:24:17.258Z,2.60
2019-05-06T05:28:23.554Z,2.33
2019-05-06T05:32:28.977Z,2.97
2019-05-06T05:36:35.966Z,3.23
2019-05-06T05:40:43.028Z,3.60
2019-05-06T05:44:52.256Z,2.77
2019-05-06T05:49:07.969Z,3.10
2019-05-06T05:53:13.759Z,3.03
2019-05-06T05:57:20.032Z,4.57
2019-05-06T06:01:27.725Z,3.33
2019-05-06T06:05:33.366Z,3.93
2019-05-06T06:09:48.077Z,3.10
2019-05-06T06:13:55.136Z,4.43
2019-05-06T06:18:12.575Z,4.30
2019-05-06T06:22:20.247Z,4.30
2019-05-06T06:26:29.379Z,3.50
2019-05-06T06:30:46.113Z,3.57
2019-05-06T06:35:14.570Z,4.13
2019-05-06T06:39:28.978Z,3.40
2019-05-06T06:43:36.111Z,3.37
2019-05-06T06:47:42.588Z,3.10
2019-05-06T06:52:11.507Z,2.57
2019-05-06T06:56:33.967Z,2.23
2019-05-06T07:00:42.637Z,2.20
2019-05-06T07:04:55.619Z,1.50
2019-05-06T07:09:02.725Z,2.73
2019-05-06T07:13:09.423Z,2.30
2019-05-06T07:17:16.319Z,2.30
2019-05-06T07:21:26.681Z,2.13
2019-05-06T07:25:33.619Z,2.23
2019-05-06T07:29:48.156Z,1.97
2019-05-06T07:33:49.050Z,1.47
2019-05-06T07:37:56.105Z,2.10
2019-05-06T07:42:03.243Z,2.42
2019-05-06T07:46:17.823Z,2.60
2019-05-06T07:50:43.991Z,2.50
2019-05-06T07:54:53.154Z,2.10
2019-05-06T07:59:17.512Z,2.40
2019-05-06T08:03:24.852Z,2.10
2019-05-06T08:07:33.278Z,1.63
2019-05-06T08:11:42.302Z,2.27
2019-05-06T08:15:49.802Z,2.50
2019-05-06T08:19:56.120Z,2.23
2019-05-06T08:24:03.998Z,1.70
2019-05-06T08:28:10.451Z,2.60
2019-05-06T08:32:18.431Z,1.77
2019-05-06T08:36:42.666Z,2.40
2019-05-06T08:40:49.814Z,2.43
2019-05-06T08:44:55.860Z,1.93
2019-05-06T08:49:03.013Z,2.43
2019-05-06T08:53:24.238Z,2.20
2019-05-06T08:57:31.999Z,1.70
2019-05-06T09:01:47.056Z,2.00
2019-05-06T09:05:53.547Z,1.83
2019-05-06T09:09:59.333Z,1.60
2019-05-06T09:14:09.198Z,2.10
2019-05-06T09:18:13.768Z,1.90
2019-05-06T09:22:18.944Z,1.87
2019-05-06T09:26:32.281Z,2.00
2019-05-06T09:31:09.662Z,1.53
2019-05-06T09:35:17.752Z,1.93
2019-05-06T09:39:23.716Z,1.87
2019-05-06T09:43:29.182Z,1.70
2019-05-06T09:48:03.754Z,1.60
2019-05-06T09:52:08.483Z,1.57
2019-05-06T09:56:26.412Z,1.57
2019-05-06T10:00:33.319Z,1.30
2019-05-06T10:04:39.985Z,1.60
2019-05-06T10:08:45.541Z,1.40
2019-05-06T10:12:53.373Z,1.30
2019-05-06T10:16:59.703Z,1.63
2019-05-06T10:21:05.747Z,1.60
2019-05-06T10:25:13.584Z,1.60
2019-05-06T10:29:23.535Z,1.80
2019-05-06T10:33:29.628Z,1.70
2019-05-06T10:37:49.459Z,2.10
2019-05-06T10:42:13.177Z,1.33
2019-05-06T10:46:22.528Z,1.90
2019-05-06T10:50:31.112Z,1.43
2019-05-06T10:54:38.296Z,1.83
2019-05-06T10:58:44.179Z,1.73
2019-05-06T11:03:01.884Z,1.60
2019-05-06T11:07:07.388Z,1.37
2019-05-06T11:11:20.046Z,1.37
2019-05-06T11:15:23.272Z,1.40
2019-05-06T11:19:29.369Z,1.30
2019-05-06T11:23:35.408Z,1.70
2019-05-06T11:27:45.045Z,1.40
2019-05-06T11:32:07.376Z,1.33
2019-05-06T11:36:18.113Z,1.30
2019-05-06T11:40:25.892Z,1.60
2019-05-06T11:44:34.084Z,1.20
2019-05-06T11:48:43.177Z,1.17
2019-05-06T11:52:48.226Z,1.30
2019-05-06T11:56:58.168Z,1.40
2019-05-06T12:01:05.396Z,1.43
2019-05-06T12:05:10.997Z,1.40
2019-05-06T12:09:18.901Z,1.17
2019-05-06T12:13:24.320Z,1.60
2019-05-06T12:17:31.776Z,1.20
2019-05-06T12:21:39.708Z,1.20
2019-05-06T12:25:46.178Z,1.60
2019-05-06T12:29:52.866Z,1.33
2019-05-06T12:34:19.898Z,1.53
2019-05-06T12:38:30.803Z,1.43
2019-05-06T12:42:46.667Z,1.50
2019-05-06T12:46:59.845Z,1.40
2019-05-06T12:51:05.820Z,1.17
2019-05-06T12:55:21.160Z,1.20
2019-05-06T12:59:39.194Z,1.40
2019-05-06T13:03:46.249Z,1.27
2019-05-06T13:07:52.775Z,1.80
2019-05-06T13:11:59.273Z,1.60
2019-05-06T13:16:06.324Z,1.50
2019-05-06T13:20:14.674Z,1.50
2019-05-06T13:24:22.785Z,1.67
2019-05-06T13:28:30.659Z,1.13
2019-05-06T13:32:42.566Z,1.50
2019-05-06T13:36:48.444Z,1.60
2019-05-06T13:40:57.851Z,1.20
2019-05-06T13:45:04.594Z,1.40
2019-05-06T13:49:29.345Z,1.43
2019-05-06T13:57:42.895Z,1.30
2019-05-06T14:06:02.988Z,0.80
2019-05-06T14:10:09.519Z,1.03
2019-05-06T14:14:16.626Z,1.00
2019-05-06T14:18:22.651Z,1.00
2019-05-06T14:22:28.784Z,1.20
2019-05-06T14:26:36.639Z,1.70
2019-05-06T14:30:57.636Z,1.20
2019-05-06T14:35:04.760Z,1.30
2019-05-06T14:39:18.092Z,1.30
2019-05-06T14:43:23.560Z,1.10
2019-05-06T14:47:33.519Z,1.60
2019-05-06T14:51:39.851Z,1.10
2019-05-06T14:55:46.563Z,1.20
2019-05-06T14:59:55.602Z,1.00
2019-05-06T15:04:01.622Z,1.33
2019-05-06T15:08:07.830Z,1.20
2019-05-06T15:12:14.380Z,1.77
2019-05-06T15:16:22.013Z,1.10
2019-05-06T15:20:29.308Z,1.20
2019-05-06T15:24:35.505Z,1.23
2019-05-06T15:28:42.608Z,1.47
2019-05-06T15:32:48.340Z,1.60
2019-05-06T15:37:02.676Z,1.50
2019-05-06T15:41:07.583Z,1.07
2019-05-06T15:45:14.925Z,1.20
2019-05-06T15:49:22.341Z,1.20
2019-05-06T15:53:28.748Z,1.50
2019-05-06T15:57:35.267Z,1.43
2019-05-06T16:01:43.155Z,1.40
2019-05-06T16:05:49.543Z,1.10
2019-05-06T16:09:56.443Z,1.37
2019-05-06T16:14:03.118Z,1.30
2019-05-06T16:18:09.671Z,1.50
2019-05-06T16:22:15.216Z,1.50
2019-05-06T16:26:23.716Z,1.90
2019-05-06T16:30:30.144Z,1.60
2019-05-06T16:34:36.489Z,1.93
2019-05-06T16:38:42.838Z,1.63
2019-05-06T16:42:49.810Z,1.43
2019-05-06T16:46:55.842Z,1.73
2019-05-06T16:51:04.853Z,1.90
2019-05-06T16:55:14.187Z,1.63
2019-05-06T16:59:23.645Z,1.97
2019-05-06T17:03:37.804Z,1.73
2019-05-06T17:07:45.126Z,1.93
2019-05-06T17:11:51.511Z,1.93
2019-05-06T17:15:58.310Z,2.27
2019-05-06T17:20:04.218Z,2.17
2019-05-06T17:24:10.332Z,2.30
2019-05-06T17:28:23.576Z,2.17
2019-05-06T17:32:42.579Z,2.37
2019-05-06T17:36:49.705Z,2.03
2019-05-06T17:41:04.000Z,2.30
2019-05-06T17:45:27.867Z,2.07
2019-05-06T17:49:34.672Z,2.60
2019-05-06T17:53:42.777Z,2.67
2019-05-06T17:57:48.924Z,2.47
2019-05-06T18:01:58.982Z,3.10
2019-05-06T18:06:13.514Z,2.57
2019-05-06T18:10:14.507Z,3.27
2019-05-06T18:14:23.196Z,3.23
2019-05-06T18:18:49.579Z,2.83
2019-05-06T18:22:57.544Z,3.23
2019-05-06T18:27:04.891Z,2.87
2019-05-06T18:31:12.556Z,3.03
2019-05-06T18:35:18.058Z,3.37
2019-05-06T18:39:23.707Z,5.13
2019-05-06T18:43:29.763Z,5.50
2019-05-06T18:47:35.553Z,6.20
2019-05-06T18:51:42.652Z,7.23
2019-05-06T18:59:55.735Z,6.27
2019-05-06T19:04:12.900Z,6.60
2019-05-06T19:08:25.997Z,4.20
2019-05-06T19:12:39.873Z,3.83
2019-05-06T19:16:49.758Z,4.03
2019-05-06T19:20:48.116Z,4.70
2019-05-06T19:24:54.305Z,4.00
2019-05-06T19:29:04.329Z,3.80
2019-05-06T19:33:08.974Z,3.40
2019-05-06T19:37:14.551Z,4.43
2019-05-06T19:41:22.432Z,4.43
2019-05-06T19:45:34.421Z,5.30
2019-05-06T19:49:37.861Z,5.77
2019-05-06T19:53:43.357Z,6.17
2019-05-06T19:57:49.432Z,5.10
2019-05-06T20:01:56.451Z,5.83
2019-05-06T20:06:16.487Z,6.43
2019-05-06T20:10:38.729Z,6.37
2019-05-06T20:14:44.221Z,5.20
2019-05-06T20:18:52.452Z,4.70
2019-05-06T20:22:58.219Z,5.10
2019-05-06T20:27:04.500Z,5.33
2019-05-06T20:31:10.631Z,5.70
2019-05-06T20:35:38.901Z,5.97
2019-05-06T20:39:46.121Z,5.40
2019-05-06T20:43:54.329Z,6.47
2019-05-06T20:48:00.064Z,6.10
2019-05-06T20:52:08.083Z,6.17
2019-05-06T20:56:33.423Z,5.40
2019-05-06T21:00:42.714Z,5.87
2019-05-06T21:04:48.473Z,6.60
2019-05-06T21:08:58.817Z,6.30
2019-05-06T21:13:04.563Z,6.57
2019-05-06T21:17:13.122Z,8.10
2019-05-06T21:21:45.820Z,8.47
2019-05-06T21:25:53.266Z,9.43
2019-05-06T21:30:02.556Z,7.57
2019-05-06T21:34:12.863Z,7.27
2019-05-06T21:38:16.865Z,7.50
2019-05-06T21:42:24.114Z,6.63
2019-05-06T21:46:31.820Z,7.30
2019-05-06T21:50:36.287Z,7.77
2019-05-06T21:54:43.421Z,8.13
2019-05-06T21:58:53.576Z,7.20
2019-05-06T22:03:02.298Z,8.43
2019-05-06T22:07:07.065Z,8.43
2019-05-06T22:11:13.922Z,8.40
2019-05-06T22:15:20.112Z,8.63
2019-05-06T22:19:26.180Z,7.27
2019-05-06T22:23:51.681Z,8.40
2019-05-06T22:27:57.854Z,8.07
2019-05-06T22:32:08.169Z,8.00
2019-05-06T22:36:34.320Z,7.20
2019-05-06T22:40:39.947Z,8.10
2019-05-06T22:44:49.050Z,7.77
2019-05-06T22:48:54.642Z,8.30
2019-05-06T22:53:02.324Z,7.87
2019-05-06T22:57:08.735Z,8.70
2019-05-06T23:01:34.339Z,8.53
2019-05-06T23:05:42.324Z,8.60
2019-05-06T23:13:56.336Z,8.87
2019-05-06T23:18:02.300Z,8.43
2019-05-06T23:22:09.053Z,8.87
2019-05-06T23:26:17.997Z,8.20
2019-05-06T23:30:29.560Z,7.57
2019-05-06T23:34:35.828Z,9.33
2019-05-06T23:39:22.971Z,8.53
2019-05-06T23:44:08.446Z,8.00
2019-05-06T23:48:52.751Z,9.77
2019-05-06T23:53:17.726Z,9.97
2019-05-06T23:57:27.151Z,8.97
